Time;durP1;ratioP1;P1;durP2;ratioP2;P2;SDS_P1;SDS_P2;PMS_P1;PMS_P2;Temp;Humidity;BMP_temperature;BMP_pressure;BME280_temperature;BME280_humidity;BME280_pressure;Samples;Min_cycle;Max_cycle;Signal;HPM_P1;HPM_P2
2023/09/27 00:00:48;;;;;;;9.52;2.50;;;;;;;23.45;61.40;101648.53;5032598;28;20021;-47
2023/09/27 00:03:14;;;;;;;5.82;2.35;;;;;;;23.16;62.46;101642.75;5032422;28;20022;-45
2023/09/27 00:05:41;;;;;;;6.20;2.50;;;;;;;23.24;62.87;101646.03;5032360;28;20464;-46
2023/09/27 00:08:07;;;;;;;6.25;2.22;;;;;;;23.36;62.83;101650.13;5032613;28;20038;-45
2023/09/27 00:10:33;;;;;;;6.00;2.33;;;;;;;23.21;62.08;101644.69;5032275;28;20021;-45
2023/09/27 00:13:00;;;;;;;5.75;2.33;;;;;;;23.10;63.11;101648.50;5032034;28;20029;-46
2023/09/27 00:15:26;;;;;;;7.63;2.60;;;;;;;23.13;62.78;101642.47;5032239;28;20018;-49
2023/09/27 00:17:52;;;;;;;6.50;2.03;;;;;;;23.00;62.98;101643.00;5032164;28;20148;-45
2023/09/27 00:20:20;;;;;;;7.53;2.85;;;;;;;23.04;63.33;101636.75;5032005;28;20028;-47
2023/09/27 00:22:46;;;;;;;8.40;2.63;;;;;;;22.88;64.09;101648.72;5035025;28;20108;-47
2023/09/27 00:25:14;;;;;;;7.82;2.70;;;;;;;22.85;63.51;101649.19;5035529;28;20044;-45
2023/09/27 00:27:41;;;;;;;6.18;2.13;;;;;;;22.60;64.68;101647.22;5035651;28;20108;-49
2023/09/27 00:30:13;;;;;;;9.18;2.60;;;;;;;22.47;64.27;101644.97;5035465;28;20025;-47
2023/09/27 00:32:40;;;;;;;6.80;2.40;;;;;;;22.31;65.42;101649.53;5035395;28;20068;-45
2023/09/27 00:35:12;;;;;;;7.65;2.40;;;;;;;22.40;65.33;101656.13;5035600;28;20482;-46
2023/09/27 00:37:38;;;;;;;6.28;2.47;;;;;;;22.42;65.53;101644.94;5035350;28;20045;-45
2023/09/27 00:40:12;;;;;;;6.60;2.53;;;;;;;22.39;66.13;101638.94;5035314;28;20028;-45
2023/09/27 00:42:39;;;;;;;5.28;1.95;;;;;;;22.31;65.90;101644.88;5035170;28;20022;-48
2023/09/27 00:45:06;;;;;;;7.80;2.72;;;;;;;22.32;65.78;101645.69;5035090;28;20112;-46
2023/09/27 00:47:33;;;;;;;9.35;2.83;;;;;;;22.06;66.65;101642.81;5035185;28;20029;-49
2023/09/27 00:50:00;;;;;;;6.63;2.45;;;;;;;22.24;66.37;101649.75;5035290;28;20104;-50
2023/09/27 00:52:27;;;;;;;4.78;2.17;;;;;;;22.42;65.46;101644.94;5034760;28;20036;-46
2023/09/27 00:54:54;;;;;;;5.78;2.60;;;;;;;22.21;65.51;101649.47;5035089;28;20022;-49
2023/09/27 00:57:20;;;;;;;9.48;2.70;;;;;;;22.19;66.08;101655.19;5035379;28;20366;-45
2023/09/27 00:59:47;;;;;;;5.18;1.88;;;;;;;22.11;66.22;101644.78;5035013;28;20030;-45
2023/09/27 01:02:13;;;;;;;6.22;2.50;;;;;;;21.78;67.26;101646.72;5034932;28;20034;-47
2023/09/27 01:04:40;;;;;;;4.57;1.90;;;;;;;21.83;67.38;101648.66;5034993;28;20110;-44
2023/09/27 01:07:08;;;;;;;5.85;2.63;;;;;;;21.87;67.72;101652.47;5034705;28;20038;-47
2023/09/27 01:09:34;;;;;;;8.45;2.72;;;;;;;21.85;67.79;101644.59;5035143;28;20064;-46
2023/09/27 01:12:00;;;;;;;5.32;1.98;;;;;;;21.92;67.19;101647.06;5035320;28;20554;-48
2023/09/27 01:14:27;;;;;;;5.72;2.67;;;;;;;21.96;65.47;101652.84;5034590;28;20032;-48
2023/09/27 01:16:53;;;;;;;8.73;2.50;;;;;;;21.83;65.86;101646.75;5050072;28;20436;-50
2023/09/27 01:19:19;;;;;;;6.85;2.58;;;;;;;21.68;65.15;101654.81;5034646;28;20402;-47
2023/09/27 01:21:45;;;;;;;5.80;2.10;;;;;;;21.78;65.47;101646.72;5034762;28;20021;-49
2023/09/27 01:24:13;;;;;;;6.35;2.30;;;;;;;21.90;64.64;101649.25;5034633;28;20025;-49
2023/09/27 01:26:39;;;;;;;4.97;1.83;;;;;;;21.52;66.26;101648.41;5033458;28;20030;-50
2023/09/27 01:29:06;;;;;;;14.35;2.63;;;;;;;21.65;66.40;101652.59;5034362;28;20017;-50
2023/09/27 01:31:32;;;;;;;7.13;2.30;;;;;;;21.64;66.09;101652.84;5034516;28;20033;-47
2023/09/27 01:33:58;;;;;;;5.05;1.92;;;;;;;21.68;66.43;101652.09;5033301;28;20022;-47
2023/09/27 01:36:25;;;;;;;9.00;2.60;;;;;;;21.53;66.77;101654.69;5034137;28;20041;-49
2023/09/27 01:38:51;;;;;;;7.70;2.28;;;;;;;21.55;67.06;101660.72;5034677;28;20151;-50
2023/09/27 01:41:18;;;;;;;8.30;2.70;;;;;;;21.40;66.94;101657.84;5034556;28;20017;-50
2023/09/27 01:43:44;;;;;;;7.78;2.63;;;;;;;21.02;67.94;101649.53;5034010;28;20021;-51
2023/09/27 01:46:10;;;;;;;7.95;2.40;;;;;;;21.29;65.05;101660.47;5034421;28;20055;-47
2023/09/27 01:48:37;;;;;;;5.50;2.17;;;;;;;21.28;61.76;101664.25;5033880;28;20076;-47
2023/09/27 01:51:03;;;;;;;4.70;1.35;;;;;;;21.17;57.92;101659.78;5033949;28;20025;-51
2023/09/27 01:53:30;;;;;;;3.45;1.58;;;;;;;21.32;53.08;101662.69;5034005;28;20025;-49
2023/09/27 01:55:56;;;;;;;3.78;1.40;;;;;;;21.14;52.56;101667.63;5034126;28;20029;-48
2023/09/27 01:58:22;;;;;;;3.75;1.75;;;;;;;21.01;53.64;101666.94;5033886;28;20116;-48
2023/09/27 02:00:48;;;;;;;3.28;1.80;;;;;;;20.97;54.33;101668.53;5034316;28;20466;-48
2023/09/27 02:03:15;;;;;;;5.60;1.85;;;;;;;21.02;53.78;101675.94;5033728;28;20112;-49
2023/09/27 02:05:41;;;;;;;4.05;1.50;;;;;;;20.89;54.22;101663.56;5033688;28;20076;-48
2023/09/27 02:08:11;;;;;;;6.43;1.88;;;;;;;21.01;54.05;101663.41;5033690;28;20038;-46
2023/09/27 02:10:38;;;;;;;2.45;1.25;;;;;;;20.91;54.87;101668.72;5033669;28;20053;-48
2023/09/27 02:13:04;;;;;;;4.35;1.45;;;;;;;20.81;55.50;101675.69;5015903;28;20037;-49
2023/09/27 02:15:30;;;;;;;4.13;1.63;;;;;;;20.81;54.44;101678.41;5033540;28;20022;-47
2023/09/27 02:17:56;;;;;;;4.43;1.67;;;;;;;20.70;55.61;101684.81;5033508;28;20467;-48
2023/09/27 02:20:24;;;;;;;3.63;1.40;;;;;;;20.70;55.75;101682.09;5033654;28;20027;-48
2023/09/27 02:22:50;;;;;;;3.10;1.40;;;;;;;20.71;56.40;101688.34;5033380;28;20496;-47
2023/09/27 02:25:17;;;;;;;3.90;1.58;;;;;;;20.70;56.39;101692.97;5033597;28;20576;-47
2023/09/27 02:27:43;;;;;;;6.38;1.60;;;;;;;20.63;56.74;101686.91;5033072;28;20108;-50
2023/09/27 02:30:14;;;;;;;4.80;1.63;;;;;;;20.58;57.49;101697.72;5033404;28;20047;-49
2023/09/27 02:32:42;;;;;;;6.22;1.63;;;;;;;20.57;57.13;101696.06;5033292;28;20017;-51
2023/09/27 02:35:09;;;;;;;3.85;1.50;;;;;;;20.55;57.72;101698.22;5032969;28;20151;-50
2023/09/27 02:37:37;;;;;;;4.07;1.30;;;;;;;20.49;58.08;101701.97;5032942;28;20049;-51
2023/09/27 02:40:12;;;;;;;5.25;1.80;;;;;;;20.60;58.09;101700.16;5033260;28;20025;-48
2023/09/27 02:42:40;;;;;;;5.18;1.70;;;;;;;20.46;57.83;101716.88;5033473;28;20064;-48
2023/09/27 02:45:09;;;;;;;3.83;1.58;;;;;;;20.48;57.78;101713.88;5032908;28;20071;-50
2023/09/27 02:47:35;;;;;;;6.03;1.75;;;;;;;20.07;59.07;101715.97;5033030;28;20025;-49
2023/09/27 02:50:05;;;;;;;4.55;1.67;;;;;;;20.14;58.02;101711.19;5032975;28;20018;-49
2023/09/27 02:52:32;;;;;;;5.40;1.58;;;;;;;20.07;58.90;101709.72;5032914;28;20108;-47
2023/09/27 02:54:58;;;;;;;4.03;1.85;;;;;;;19.95;59.18;101721.50;5033234;28;20025;-51
2023/09/27 02:57:25;;;;;;;4.82;1.10;;;;;;;19.80;59.24;101712.28;5033274;28;20029;-50
2023/09/27 02:59:51;;;;;;;3.33;1.30;;;;;;;19.86;59.58;101725.69;5032937;28;20025;-49
2023/09/27 03:02:20;;;;;;;3.95;1.20;;;;;;;19.74;60.31;101716.81;5032838;28;20033;-49
2023/09/27 03:04:47;;;;;;;4.72;1.45;;;;;;;19.80;59.78;101715.00;5032884;28;20028;-49
2023/09/27 03:07:15;;;;;;;5.00;1.50;;;;;;;19.78;59.91;101716.06;5032735;28;20059;-51
2023/09/27 03:09:41;;;;;;;5.10;1.60;;;;;;;19.57;61.04;101716.75;5032818;28;20053;-51
2023/09/27 03:12:08;;;;;;;3.70;1.67;;;;;;;19.90;60.08;101720.59;5032671;28;20021;-50
2023/09/27 03:14:35;;;;;;;2.10;1.20;;;;;;;19.62;61.10;101721.47;5032620;28;20030;-49
2023/09/27 03:17:02;;;;;;;2.40;1.27;;;;;;;19.50;61.44;101722.34;5032736;28;20030;-48
2023/09/27 03:19:28;;;;;;;2.83;1.02;;;;;;;19.51;62.25;101723.16;5032628;28;20405;-50
2023/09/27 03:21:54;;;;;;;3.22;1.83;;;;;;;19.41;62.09;101722.97;5032463;28;20450;-47
2023/09/27 03:24:20;;;;;;;3.25;1.20;;;;;;;19.36;62.51;101720.16;5032473;28;20033;-47
2023/09/27 03:26:48;;;;;;;5.65;1.48;;;;;;;19.25;62.63;101717.25;5032893;28;20115;-50
2023/09/27 03:29:14;;;;;;;4.10;1.42;;;;;;;19.38;62.25;101720.75;5032581;28;20091;-49
2023/09/27 03:31:40;;;;;;;2.78;1.13;;;;;;;19.31;62.43;101720.06;5032467;28;20438;-47
2023/09/27 03:34:06;;;;;;;2.20;1.00;;;;;;;19.19;63.15;101715.50;5032452;28;20548;-48
2023/09/27 03:36:34;;;;;;;2.15;1.23;;;;;;;19.17;62.98;101709.50;5032442;28;20421;-50
2023/09/27 03:39:00;;;;;;;3.92;1.33;;;;;;;19.25;62.59;101716.44;5032986;28;20032;-47
2023/09/27 03:41:26;;;;;;;2.90;1.23;;;;;;;19.17;63.30;101712.22;5032141;28;20025;-50
2023/09/27 03:43:53;;;;;;;1.55;0.90;;;;;;;19.16;63.47;101717.91;5032300;28;20484;-47
2023/09/27 03:46:19;;;;;;;4.88;1.55;;;;;;;19.16;63.50;101707.03;5032526;28;20542;-49
2023/09/27 03:48:45;;;;;;;2.85;1.17;;;;;;;19.04;63.95;101712.47;5032704;28;20025;-48
2023/09/27 03:51:11;;;;;;;4.05;1.67;;;;;;;19.06;63.37;101710.38;5032861;28;20100;-50
2023/09/27 03:53:38;;;;;;;2.97;1.40;;;;;;;19.05;63.43;101713.34;5032365;28;20021;-50
2023/09/27 03:56:04;;;;;;;4.00;1.35;;;;;;;19.00;63.90;101719.47;5032675;28;20025;-47
2023/09/27 03:58:30;;;;;;;4.55;1.42;;;;;;;18.97;64.18;101714.53;5036350;28;20028;-50
2023/09/27 04:00:56;;;;;;;2.33;1.20;;;;;;;19.04;64.49;101717.91;5036380;28;20056;-46
2023/09/27 04:03:23;;;;;;;3.17;1.27;;;;;;;18.84;64.74;101709.38;5036556;28;20033;-50
2023/09/27 04:05:49;;;;;;;2.65;1.38;;;;;;;18.72;65.14;101707.53;5036468;28;20477;-48
2023/09/27 04:08:17;;;;;;;4.50;1.70;;;;;;;18.63;65.36;101708.91;5036069;28;20029;-50
2023/09/27 04:10:43;;;;;;;3.60;1.92;;;;;;;18.62;66.33;101706.44;5036031;28;20034;-48
2023/09/27 04:13:10;;;;;;;4.72;1.80;;;;;;;18.79;66.05;101703.84;5036014;28;20474;-47
2023/09/27 04:15:36;;;;;;;2.88;1.60;;;;;;;18.67;66.34;101699.28;5035778;28;20465;-47
2023/09/27 04:18:03;;;;;;;2.20;1.50;;;;;;;18.57;66.58;101698.19;5036004;28;20033;-49
2023/09/27 04:20:30;;;;;;;8.15;1.92;;;;;;;18.53;67.17;101705.16;5035762;28;20422;-49
2023/09/27 04:22:56;;;;;;;8.00;2.65;;;;;;;18.17;68.63;101712.50;5035777;28;20052;-47
2023/09/27 04:25:22;;;;;;;6.85;2.13;;;;;;;18.05;69.08;101707.06;5035629;28;20107;-47
2023/09/27 04:27:50;;;;;;;4.15;1.85;;;;;;;18.20;68.37;101698.44;5035512;28;20025;-46
2023/09/27 04:30:19;;;;;;;4.80;1.90;;;;;;;18.15;68.67;101701.84;5035512;28;20446;-48
2023/09/27 04:32:50;;;;;;;4.55;1.67;;;;;;;18.23;68.19;101697.16;5035536;28;20037;-47
2023/09/27 04:35:16;;;;;;;3.67;1.67;;;;;;;18.29;68.00;101704.34;5035687;28;20040;-49
2023/09/27 04:37:43;;;;;;;4.70;1.77;;;;;;;18.20;68.38;101699.28;5035437;28;20077;-47
2023/09/27 04:40:14;;;;;;;6.97;2.25;;;;;;;18.09;69.10;101708.22;5035371;28;20026;-47
2023/09/27 04:42:44;;;;;;;5.13;1.95;;;;;;;18.04;69.47;101704.56;5035306;28;20033;-47
2023/09/27 04:45:12;;;;;;;5.47;1.90;;;;;;;17.98;69.34;101706.34;5035465;28;20022;-48
2023/09/27 04:47:40;;;;;;;4.75;2.17;;;;;;;17.97;69.57;101704.69;5035828;28;20022;-48
2023/09/27 04:50:10;;;;;;;2.63;1.60;;;;;;;17.91;69.97;101703.75;5035834;28;20366;-47
2023/09/27 04:52:38;;;;;;;2.80;2.03;;;;;;;17.81;70.30;101702.66;5035777;28;20373;-47
2023/09/27 04:55:05;;;;;;;6.47;2.30;;;;;;;17.90;69.96;101703.97;5035157;28;20319;-49
2023/09/27 04:57:31;;;;;;;3.20;1.85;;;;;;;17.80;70.73;101709.13;5035199;28;20033;-50
2023/09/27 04:59:58;;;;;;;4.65;1.50;;;;;;;17.78;70.17;101705.84;5035085;28;20386;-49
2023/09/27 05:02:25;;;;;;;4.40;1.90;;;;;;;17.66;70.96;101712.03;5035041;28;20029;-48
2023/09/27 05:04:51;;;;;;;6.28;2.10;;;;;;;17.47;71.71;101718.56;5034749;28;20041;-47
2023/09/27 05:07:19;;;;;;;3.70;1.85;;;;;;;17.35;72.67;101715.81;5034525;28;20033;-47
2023/09/27 05:09:46;;;;;;;5.90;2.28;;;;;;;17.31;72.62;101721.91;5034981;28;20029;-48
2023/09/27 05:12:14;;;;;;;5.80;2.40;;;;;;;17.47;71.87;101718.56;5035092;28;20089;-46
2023/09/27 05:14:40;;;;;;;3.60;1.80;;;;;;;17.37;72.24;101723.69;5034732;28;20033;-51
2023/09/27 05:17:07;;;;;;;3.35;1.63;;;;;;;17.55;71.57;101720.94;5034597;28;20053;-46
2023/09/27 05:19:33;;;;;;;3.63;1.73;;;;;;;17.23;72.88;101728.47;5034620;28;20457;-46
2023/09/27 05:22:00;;;;;;;3.30;1.65;;;;;;;17.23;72.92;101724.94;5034621;28;20443;-46
2023/09/27 05:24:26;;;;;;;4.60;1.77;;;;;;;17.19;72.71;101723.75;5034498;28;20052;-49
2023/09/27 05:26:52;;;;;;;4.88;1.90;;;;;;;17.35;72.68;101728.53;5034798;28;20021;-47
2023/09/27 05:29:20;;;;;;;6.18;2.05;;;;;;;17.09;73.54;101711.56;5034309;28;20445;-47
2023/09/27 05:31:46;;;;;;;6.07;2.70;;;;;;;16.89;74.30;101724.53;5034478;28;20025;-50
2023/09/27 05:34:13;;;;;;;5.30;2.80;;;;;;;16.83;74.49;101725.44;5034328;28;20033;-44
2023/09/27 05:36:40;;;;;;;5.72;2.80;;;;;;;16.70;74.87;101712.84;5034029;28;20051;-48
2023/09/27 05:39:08;;;;;;;3.90;2.15;;;;;;;16.76;74.83;101713.88;5034205;28;20126;-45
2023/09/27 05:41:36;;;;;;;7.95;2.90;;;;;;;16.39;76.64;101719.22;5034958;28;20034;-46
2023/09/27 05:44:03;;;;;;;7.82;2.90;;;;;;;16.53;75.84;101726.13;5034096;28;20025;-45
2023/09/27 05:46:29;;;;;;;5.88;2.58;;;;;;;16.56;75.52;101717.59;5034005;28;20026;-45
2023/09/27 05:48:56;;;;;;;6.43;3.45;;;;;;;16.57;75.84;101723.81;5034134;28;20072;-45
2023/09/27 05:51:23;;;;;;;8.10;3.53;;;;;;;16.50;75.74;101726.59;5033984;28;20378;-47
2023/09/27 05:53:52;;;;;;;8.55;2.58;;;;;;;16.59;75.20;101727.94;5033947;28;20477;-45
2023/09/27 05:56:19;;;;;;;6.78;2.38;;;;;;;16.33;76.32;101728.22;5033913;28;20026;-46
2023/09/27 05:58:45;;;;;;;7.55;2.88;;;;;;;16.06;77.44;101733.03;5033798;28;20493;-44
2023/09/27 06:01:12;;;;;;;8.65;3.50;;;;;;;16.14;77.04;101737.31;5033601;28;20025;-44
2023/09/27 06:03:38;;;;;;;9.90;3.38;;;;;;;15.86;78.32;101735.06;5033769;28;20365;-46
2023/09/27 06:06:05;;;;;;;7.40;2.50;;;;;;;15.74;78.58;101734.94;5033508;28;20092;-49
2023/09/27 06:08:31;;;;;;;4.75;1.88;;;;;;;15.64;79.06;101732.72;5033726;28;20029;-43
2023/09/27 06:10:59;;;;;;;6.28;3.42;;;;;;;15.56;79.48;101728.38;5033767;28;20040;-43
2023/09/27 06:13:26;;;;;;;9.93;4.05;;;;;;;15.71;78.96;101730.81;5033524;28;20087;-44
2023/09/27 06:15:54;;;;;;;6.65;3.00;;;;;;;15.61;79.47;101735.00;5033857;28;20056;-43
2023/09/27 06:18:21;;;;;;;6.57;2.88;;;;;;;15.42;80.63;101734.06;5033736;28;20112;-45
2023/09/27 06:20:47;;;;;;;6.28;2.30;;;;;;;15.56;79.84;101741.88;5032864;28;20025;-43
2023/09/27 06:23:14;;;;;;;6.47;2.10;;;;;;;15.59;79.67;101740.59;5033426;28;20053;-43
2023/09/27 06:25:43;;;;;;;5.43;2.40;;;;;;;15.56;79.90;101735.66;5033345;28;20021;-43
2023/09/27 06:28:19;;;;;;;5.78;2.17;;;;;;;15.68;79.31;101738.50;5033601;28;20025;-46
2023/09/27 06:30:45;;;;;;;5.65;1.77;;;;;;;15.73;78.81;101736.00;5033391;28;20029;-46
2023/09/27 06:33:12;;;;;;;4.20;1.95;;;;;;;15.58;79.26;101737.06;5033226;28;20097;-48
2023/09/27 06:35:40;;;;;;;6.20;1.98;;;;;;;15.60;79.21;101731.44;5033246;28;20053;-45
2023/09/27 06:38:06;;;;;;;5.53;2.13;;;;;;;15.34;80.56;101727.06;5033213;28;20134;-44
2023/09/27 06:40:32;;;;;;;5.88;2.30;;;;;;;15.20;81.25;101734.38;5033324;28;20108;-44
2023/09/27 06:42:59;;;;;;;5.95;2.30;;;;;;;15.18;81.41;101739.16;5033464;28;20486;-45
2023/09/27 06:45:26;;;;;;;6.82;1.83;;;;;;;15.34;80.59;101739.72;5033187;28;20045;-47
2023/09/27 06:47:54;;;;;;;4.38;1.88;;;;;;;15.35;80.43;101739.50;5033162;28;20389;-44
2023/09/27 06:50:22;;;;;;;5.18;1.88;;;;;;;15.53;79.52;101734.19;5033230;28;20103;-45
2023/09/27 06:52:48;;;;;;;4.03;1.85;;;;;;;15.32;80.65;101731.81;5033149;28;20079;-44
2023/09/27 06:55:16;;;;;;;3.60;1.88;;;;;;;15.26;80.80;101730.00;5032893;28;20057;-47
2023/09/27 06:57:52;;;;;;;3.55;1.58;;;;;;;15.40;79.97;101726.19;5032865;28;20481;-48
2023/09/27 07:00:23;;;;;;;6.05;1.67;;;;;;;15.46;79.48;101738.00;5033090;28;20474;-46
2023/09/27 07:02:51;;;;;;;4.43;1.80;;;;;;;15.34;80.07;101734.34;5033254;28;20390;-45
2023/09/27 07:05:21;;;;;;;2.63;1.58;;;;;;;15.30;80.24;101732.06;5032643;28;20022;-47
2023/09/27 07:07:52;;;;;;;5.00;1.80;;;;;;;15.35;79.82;101733.28;5032845;28;20076;-44
2023/09/27 07:10:19;;;;;;;5.00;1.73;;;;;;;15.35;79.78;101733.28;5032892;28;20414;-45
2023/09/27 07:12:46;;;;;;;4.45;1.65;;;;;;;15.40;79.86;101736.16;5032991;28;20108;-44
2023/09/27 07:15:13;;;;;;;5.68;1.63;;;;;;;15.40;79.49;101731.59;5032919;28;20029;-48
2023/09/27 07:17:44;;;;;;;4.65;1.85;;;;;;;15.25;80.20;101731.03;5032633;28;20072;-47
2023/09/27 07:22:44;;;;;;;3.00;1.77;;;;;;;15.36;79.63;101727.66;5032699;28;20452;-48
2023/09/27 07:25:16;;;;;;;4.05;2.05;;;;;;;15.29;79.46;101732.28;5032857;28;20033;-48
2023/09/27 07:27:43;;;;;;;2.75;1.50;;;;;;;15.14;80.44;101723.63;5032591;28;20116;-46
2023/09/27 07:30:11;;;;;;;5.13;2.00;;;;;;;15.22;80.18;101728.78;5032995;28;20030;-46
2023/09/27 07:32:41;;;;;;;6.57;2.95;;;;;;;15.26;79.87;101724.59;5036732;28;20032;-49
2023/09/27 07:35:10;;;;;;;5.20;2.10;;;;;;;15.21;79.92;101721.72;5037042;28;20052;-46
2023/09/27 07:37:39;;;;;;;3.65;2.20;;;;;;;15.17;80.12;101726.72;5036329;28;20579;-46
2023/09/27 07:40:09;;;;;;;3.67;2.00;;;;;;;15.21;79.86;101724.41;5018733;28;20414;-48
2023/09/27 07:42:37;;;;;;;1.52;1.20;;;;;;;15.19;79.80;101719.25;5035311;28;20100;-45
2023/09/27 07:45:05;;;;;;;6.43;1.77;;;;;;;15.25;79.12;101712.16;5036490;28;20458;-46
2023/09/27 07:47:33;;;;;;;5.53;2.35;;;;;;;15.25;78.87;101713.00;5036388;28;20037;-46
2023/09/27 07:49:59;;;;;;;4.55;1.60;;;;;;;15.22;79.02;101709.91;5036317;28;20489;-48
2023/09/27 07:52:26;;;;;;;2.95;1.75;;;;;;;15.13;79.25;101705.81;5036244;28;20029;-45
2023/09/27 07:54:52;;;;;;;4.38;1.80;;;;;;;14.97;79.98;101699.03;5036249;28;20600;-46
2023/09/27 07:57:20;;;;;;;6.32;2.22;;;;;;;15.02;79.73;101700.03;5036892;28;20052;-46
2023/09/27 07:59:46;;;;;;;2.25;1.80;;;;;;;15.00;79.63;101699.44;5018421;28;20025;-49
2023/09/27 08:02:13;;;;;;;4.78;1.90;;;;;;;14.89;80.01;101696.59;5036467;28;20025;-48
2023/09/27 08:04:39;;;;;;;3.88;2.03;;;;;;;15.03;79.54;101700.84;5036150;28;20041;-46
2023/09/27 08:07:06;;;;;;;5.15;2.10;;;;;;;14.90;80.11;101693.66;5036018;28;20037;-48
2023/09/27 08:09:38;;;;;;;6.30;1.95;;;;;;;14.95;79.93;101695.72;5037208;28;20109;-49
2023/09/27 08:12:05;;;;;;;5.32;1.73;;;;;;;14.77;81.01;101696.44;5036405;28;20052;-46
2023/09/27 08:14:38;;;;;;;3.17;1.50;;;;;;;14.81;80.53;101702.19;5035948;28;20087;-46
2023/09/27 08:17:04;;;;;;;4.60;1.65;;;;;;;14.70;81.03;101704.50;5036227;28;20026;-46
2023/09/27 08:19:32;;;;;;;4.85;2.35;;;;;;;14.78;80.84;101706.97;5036047;28;20053;-48
2023/09/27 08:21:58;;;;;;;5.50;1.88;;;;;;;14.80;80.48;101701.38;5035881;28;20452;-46
2023/09/27 08:24:24;;;;;;;4.10;1.98;;;;;;;14.77;80.50;101705.34;5035735;28;20060;-48
2023/09/27 08:26:50;;;;;;;5.82;1.80;;;;;;;14.74;80.39;101707.63;5035624;28;20026;-47
2023/09/27 08:29:18;;;;;;;6.95;2.47;;;;;;;14.66;80.30;101707.88;5035713;28;20082;-48
2023/09/27 08:31:44;;;;;;;3.47;1.70;;;;;;;14.67;80.43;101704.13;5035843;28;20025;-46
2023/09/27 08:34:11;;;;;;;4.47;1.83;;;;;;;14.63;80.54;101710.97;5035533;28;20441;-49
2023/09/27 08:36:37;;;;;;;4.55;1.73;;;;;;;14.56;80.43;101708.28;5035191;28;20045;-46
2023/09/27 08:39:04;;;;;;;5.18;1.98;;;;;;;14.63;80.05;101706.41;5035407;28;20066;-45
2023/09/27 08:41:30;;;;;;;4.88;1.92;;;;;;;14.50;80.19;101704.59;5035210;28;20029;-47
2023/09/27 08:43:57;;;;;;;5.10;2.05;;;;;;;14.48;80.52;101705.81;5035041;28;20032;-50
2023/09/27 08:46:25;;;;;;;10.07;2.45;;;;;;;14.58;80.07;101700.81;5035337;28;20080;-46
2023/09/27 08:48:52;;;;;;;5.90;1.80;;;;;;;14.53;80.19;101700.63;5035236;28;20104;-49
2023/09/27 08:51:18;;;;;;;7.13;2.00;;;;;;;14.51;80.35;101706.22;5035313;28;20028;-46
2023/09/27 08:53:45;;;;;;;7.78;2.22;;;;;;;14.39;80.70;101704.38;5035394;28;20032;-47
2023/09/27 08:56:14;;;;;;;5.45;2.38;;;;;;;14.63;80.00;101702.88;5035199;28;20033;-46
2023/09/27 08:58:40;;;;;;;5.30;2.10;;;;;;;14.48;80.20;101703.94;5035223;28;20107;-46
2023/09/27 09:01:10;;;;;;;4.40;2.30;;;;;;;14.17;81.58;101704.59;5035153;28;20040;-48
2023/09/27 09:03:37;;;;;;;4.80;1.92;;;;;;;14.33;80.79;101705.22;5035121;28;20018;-48
2023/09/27 09:06:11;;;;;;;4.22;1.27;;;;;;;14.46;80.13;101706.00;5034897;28;20021;-49
2023/09/27 09:08:41;;;;;;;5.63;2.05;;;;;;;14.44;79.72;101702.69;5034932;28;20049;-49
2023/09/27 09:11:12;;;;;;;5.53;2.15;;;;;;;14.13;81.50;101700.66;5034879;28;20024;-46
2023/09/27 09:14:04;;;;;;;3.97;2.05;;;;;;;14.09;81.84;101703.97;5035077;28;20021;-46
2023/09/27 09:16:47;;;;;;;4.07;1.90;;;;;;;13.92;83.08;101703.56;5034912;28;20490;-46
2023/09/27 09:19:26;;;;;;;3.85;2.10;;;;;;;13.92;82.65;101695.50;5050651;28;20033;-48
2023/09/27 09:22:09;;;;;;;5.68;1.98;;;;;;;14.07;82.22;101695.28;5034667;28;20021;-48
2023/09/27 09:24:36;;;;;;;6.53;2.13;;;;;;;14.04;82.49;101698.38;5034476;28;20034;-46
2023/09/27 09:27:07;;;;;;;4.93;2.28;;;;;;;13.88;83.06;101683.47;5034569;28;20040;-47
2023/09/27 09:29:50;;;;;;;3.58;1.65;;;;;;;13.91;82.72;101694.66;5034642;28;20040;-46
2023/09/27 09:32:19;;;;;;;3.08;1.80;;;;;;;14.06;81.84;101691.78;5034803;28;20036;-47
2023/09/27 09:34:51;;;;;;;8.85;2.28;;;;;;;13.88;82.61;101689.72;5034406;28;20040;-48
2023/09/27 09:37:31;;;;;;;3.55;1.73;;;;;;;13.85;82.94;101683.91;5034154;28;20037;-47
2023/09/27 09:40:14;;;;;;;4.53;1.98;;;;;;;13.84;83.28;101683.09;5034602;28;20106;-46
2023/09/27 09:42:42;;;;;;;3.53;1.65;;;;;;;13.85;83.34;101679.34;5034686;28;20025;-46
2023/09/27 09:45:12;;;;;;;3.47;2.10;;;;;;;13.80;83.27;101687.22;5034759;28;20041;-45
2023/09/27 09:47:43;;;;;;;6.80;2.33;;;;;;;13.80;83.46;101687.22;5034434;28;20029;-46
2023/09/27 09:50:18;;;;;;;6.45;1.80;;;;;;;13.71;83.74;101686.59;5034256;28;20033;-47
2023/09/27 09:52:59;;;;;;;6.22;2.38;;;;;;;13.73;83.63;101692.59;5033996;28;20033;-48
2023/09/27 09:55:29;;;;;;;3.60;1.67;;;;;;;13.80;83.50;101695.28;5032788;28;20124;-46
2023/09/27 09:58:18;;;;;;;4.03;1.90;;;;;;;13.82;83.83;101687.81;5030342;28;20445;-46
2023/09/27 10:00:49;;;;;;;5.57;2.13;;;;;;;13.82;83.71;101695.06;5034179;28;20199;-46
2023/09/27 10:03:21;;;;;;;7.40;2.22;;;;;;;13.67;84.51;101693.41;5034008;28;20029;-45
2023/09/27 10:05:50;;;;;;;5.88;2.15;;;;;;;13.76;83.87;101694.03;5033669;28;20490;-46
2023/09/27 10:08:20;;;;;;;5.72;1.75;;;;;;;13.81;83.69;101685.34;5033685;28;20071;-47
2023/09/27 10:10:47;;;;;;;7.28;2.08;;;;;;;13.79;83.72;101690.94;5033553;28;20022;-45
2023/09/27 10:13:14;;;;;;;4.57;2.00;;;;;;;13.77;83.79;101693.03;5033804;28;20551;-45
2023/09/27 10:15:42;;;;;;;5.00;1.83;;;;;;;13.85;83.46;101694.66;5033710;28;20034;-47
2023/09/27 10:18:24;;;;;;;3.78;2.03;;;;;;;13.87;82.78;101690.72;5033548;28;20033;-49
2023/09/27 10:21:05;;;;;;;3.75;1.70;;;;;;;13.79;83.02;101692.81;5033468;28;20017;-46
2023/09/27 10:23:35;;;;;;;5.57;1.80;;;;;;;13.77;83.09;101681.41;5033548;28;20033;-46
2023/09/27 10:26:20;;;;;;;4.07;2.05;;;;;;;13.76;82.99;101685.97;5033265;28;20025;-45
2023/09/27 10:29:07;;;;;;;2.83;1.60;;;;;;;13.78;82.73;101686.59;5033388;28;20029;-47
2023/09/27 10:31:38;;;;;;;5.45;2.13;;;;;;;13.73;83.25;101686.38;5033729;28;20087;-48
2023/09/27 10:34:23;;;;;;;6.05;1.90;;;;;;;13.82;82.61;101687.00;5033469;28;20474;-46
2023/09/27 10:36:49;;;;;;;3.72;1.77;;;;;;;13.86;81.96;101681.00;5033200;28;20072;-45
2023/09/27 10:39:18;;;;;;;6.47;2.03;;;;;;;13.80;82.04;101686.38;5033203;28;20046;-46
2023/09/27 10:41:51;;;;;;;4.00;1.70;;;;;;;13.81;81.81;101683.47;5033323;28;20026;-46
2023/09/27 10:44:29;;;;;;;2.15;1.33;;;;;;;13.76;81.76;101685.97;5033489;28;20116;-45
2023/09/27 10:46:56;;;;;;;4.80;1.80;;;;;;;13.61;82.38;101680.78;5033194;28;20040;-45
2023/09/27 10:49:24;;;;;;;6.45;2.17;;;;;;;13.63;82.41;101680.59;5033304;28;20068;-46
2023/09/27 10:51:52;;;;;;;4.35;1.83;;;;;;;13.16;84.64;101679.66;5033176;28;20025;-45
2023/09/27 10:54:25;;;;;;;4.88;2.00;;;;;;;13.20;84.73;101678.19;5032820;28;20095;-46
2023/09/27 10:56:56;;;;;;;7.38;2.00;;;;;;;13.31;84.17;101677.63;5033371;28;20470;-48
2023/09/27 10:59:26;;;;;;;4.78;1.83;;;;;;;13.43;83.62;101677.84;5033023;28;20029;-46
2023/09/27 11:01:54;;;;;;;3.85;1.95;;;;;;;13.42;83.61;101679.72;5032855;28;20104;-46
2023/09/27 11:04:22;;;;;;;5.60;1.70;;;;;;;13.41;83.84;101682.63;5032755;28;20467;-46
2023/09/27 11:06:49;;;;;;;4.55;1.70;;;;;;;13.46;83.49;101682.84;5032341;28;20117;-46
2023/09/27 11:09:19;;;;;;;3.58;1.85;;;;;;;13.42;83.34;101682.41;5033020;28;20053;-46
2023/09/27 11:11:50;;;;;;;3.10;1.58;;;;;;;13.42;83.31;101681.56;5032665;28;20095;-45
2023/09/27 11:14:46;;;;;;;2.72;1.58;;;;;;;13.44;83.18;101684.91;5032984;28;20022;-48
2023/09/27 11:17:25;;;;;;;3.35;1.70;;;;;;;13.42;82.90;101685.09;5027930;28;20045;-45
2023/09/27 11:19:53;;;;;;;4.57;1.70;;;;;;;13.40;82.89;101687.16;5032700;28;20037;-48
2023/09/27 11:22:29;;;;;;;3.72;1.95;;;;;;;13.35;83.62;101684.25;5032427;28;20405;-46
2023/09/27 11:24:56;;;;;;;4.05;1.80;;;;;;;13.37;83.53;101689.44;5032388;28;20030;-46
2023/09/27 11:27:22;;;;;;;2.20;1.30;;;;;;;13.39;83.60;101684.69;5032555;28;20029;-48
2023/09/27 11:29:56;;;;;;;5.70;2.10;;;;;;;13.41;82.99;101688.00;5032782;28;20138;-45
2023/09/27 11:32:23;;;;;;;5.55;1.80;;;;;;;13.40;82.98;101686.34;5031492;28;20104;-48